Time;durP1;ratioP1;P1;durP2;ratioP2;P2;SDS_P1;SDS_P2;PMS_P1;PMS_P2;Temp;Humidity;BMP_temperature;BMP_pressure;BME280_temperature;BME280_humidity;BME280_pressure;Samples;Min_cycle;Max_cycle;Signal;HPM_P1;HPM_P2
2024/04/28 00:00:06;;;;;;;1.55;0.88;;;;;;;10.26;52.98;100695.75;5292944;26;20053;-78
2024/04/28 00:02:31;;;;;;;2.17;1.33;;;;;;;10.31;53.00;100685.09;5289218;26;20020;-78
2024/04/28 00:04:57;;;;;;;2.85;1.38;;;;;;;10.29;52.99;100679.94;5291714;26;20777;-76
2024/04/28 00:07:22;;;;;;;2.30;1.20;;;;;;;10.25;52.99;100691.41;5293234;26;20005;-77
2024/04/28 00:09:48;;;;;;;1.50;0.93;;;;;;;10.28;53.03;100687.81;5288915;26;20056;-78
2024/04/28 00:12:13;;;;;;;2.72;1.33;;;;;;;10.26;53.10;100687.03;5301373;26;20393;-78
2024/04/28 00:14:38;;;;;;;2.22;1.38;;;;;;;10.19;53.10;100682.09;5321621;26;20009;-76
2024/04/28 00:17:04;;;;;;;2.38;1.52;;;;;;;10.18;53.32;100674.31;5270699;26;20022;-77
2024/04/28 00:19:29;;;;;;;1.45;0.85;;;;;;;10.16;53.74;100679.59;5317043;26;20316;-75
2024/04/28 00:21:55;;;;;;;1.63;0.95;;;;;;;10.09;53.52;100670.31;5319609;26;20008;-76
2024/04/28 00:24:20;;;;;;;2.45;1.85;;;;;;;10.05;53.68;100670.50;5290466;26;20083;-76
2024/04/28 00:26:46;;;;;;;2.05;1.20;;;;;;;9.99;53.55;100676.81;5260701;26;20020;-76
2024/04/28 00:29:11;;;;;;;1.52;1.05;;;;;;;9.80;53.72;100681.94;5291335;26;20017;-75
2024/04/28 00:31:37;;;;;;;2.83;1.60;;;;;;;9.80;54.18;100677.56;5286983;26;20371;-76
2024/04/28 00:34:02;;;;;;;4.07;1.50;;;;;;;9.76;54.34;100675.94;5293854;26;20783;-75
2024/04/28 00:36:28;;;;;;;2.03;1.25;;;;;;;9.73;54.65;100677.84;5302828;26;20024;-76
2024/04/28 00:38:53;;;;;;;1.75;1.30;;;;;;;9.70;54.47;100676.22;5300286;26;20082;-76
2024/04/28 00:41:18;;;;;;;2.55;1.50;;;;;;;9.73;54.37;100677.84;5344624;26;20436;-77
2024/04/28 00:43:44;;;;;;;2.22;1.48;;;;;;;9.70;54.36;100673.59;5313409;26;20028;-78
2024/04/28 00:46:10;;;;;;;3.90;1.52;;;;;;;9.74;54.24;100682.97;5271055;26;20025;-76
2024/04/28 00:48:35;;;;;;;1.65;0.95;;;;;;;9.79;54.29;100678.47;5290372;26;20013;-75
2024/04/28 00:51:01;;;;;;;2.35;1.60;;;;;;;9.77;54.08;100679.44;5286098;26;20009;-75
2024/04/28 00:53:28;;;;;;;3.88;1.83;;;;;;;9.77;54.30;100688.09;5320078;26;20023;-77
2024/04/28 00:55:54;;;;;;;3.38;1.25;;;;;;;9.75;53.91;100689.91;5292109;26;20038;-78
2024/04/28 00:58:20;;;;;;;2.80;1.60;;;;;;;9.76;54.07;100696.81;5332740;26;20013;-76
2024/04/28 01:00:45;;;;;;;2.10;1.38;;;;;;;9.91;53.80;100702.41;5291227;26;20028;-76
2024/04/28 01:03:11;;;;;;;3.63;1.05;;;;;;;9.97;53.72;100705.63;5300807;26;20501;-76
2024/04/28 01:05:37;;;;;;;2.30;1.35;;;;;;;9.93;53.76;100703.19;5334861;26;20012;-78
2024/04/28 01:08:02;;;;;;;4.60;1.42;;;;;;;10.01;53.58;100706.31;5286068;26;20010;-77
2024/04/28 01:10:28;;;;;;;3.55;1.45;;;;;;;10.06;53.37;100704.41;5290791;26;20031;-77
2024/04/28 01:12:56;;;;;;;5.45;1.52;;;;;;;10.08;53.51;100709.53;5316496;26;20005;-76
2024/04/28 01:15:24;;;;;;;2.03;1.65;;;;;;;10.04;53.60;100711.44;5296147;26;20025;-76
2024/04/28 01:17:50;;;;;;;2.20;1.60;;;;;;;10.01;53.51;100714.16;5298279;26;20334;-77
2024/04/28 01:20:15;;;;;;;2.15;1.27;;;;;;;9.99;53.26;100710.75;5321532;26;20005;-77
2024/04/28 01:22:41;;;;;;;1.80;1.20;;;;;;;9.86;53.77;100706.97;5271082;26;20295;-76
2024/04/28 01:25:06;;;;;;;2.22;1.02;;;;;;;9.79;54.35;100701.97;5342848;26;20075;-76
2024/04/28 01:27:32;;;;;;;4.22;1.85;;;;;;;9.74;54.46;100703.00;5296328;26;20058;-76
2024/04/28 01:29:58;;;;;;;5.07;2.00;;;;;;;9.77;54.40;100700.31;5292186;26;20017;-78
2024/04/28 01:32:23;;;;;;;8.70;2.20;;;;;;;9.74;54.41;100698.63;5297287;26;20010;-76
2024/04/28 01:34:49;;;;;;;3.13;2.00;;;;;;;9.76;54.50;100695.97;5299770;26;20388;-75
2024/04/28 01:37:14;;;;;;;4.40;2.13;;;;;;;9.74;54.54;100693.41;5291634;26;20004;-76
2024/04/28 01:39:40;;;;;;;3.35;2.00;;;;;;;9.75;54.16;100697.75;5294928;26;20009;-76
2024/04/28 01:42:06;;;;;;;3.60;2.00;;;;;;;9.84;53.59;100691.34;5334404;26;20045;-77
2024/04/28 01:44:31;;;;;;;3.03;2.10;;;;;;;9.82;53.96;100694.94;5273784;26;20005;-77
2024/04/28 01:46:57;;;;;;;3.70;2.58;;;;;;;9.79;54.24;100688.91;5301271;26;20006;-77
2024/04/28 01:49:23;;;;;;;2.60;2.10;;;;;;;9.77;54.41;100680.28;5298438;26;20005;-77
2024/04/28 01:51:49;;;;;;;2.38;1.50;;;;;;;9.84;54.63;100680.06;5297327;26;20000;-76
2024/04/28 01:54:14;;;;;;;3.17;1.95;;;;;;;9.98;54.02;100675.13;5295321;26;20037;-76
2024/04/28 01:56:40;;;;;;;2.72;1.80;;;;;;;9.91;54.08;100673.69;5299641;26;20723;-76
2024/04/28 01:59:06;;;;;;;4.20;2.05;;;;;;;9.80;54.56;100667.13;5269268;26;20013;-78
2024/04/28 02:01:32;;;;;;;4.38;2.42;;;;;;;9.83;54.41;100665.28;5320701;26;20060;-76
2024/04/28 02:03:57;;;;;;;5.38;2.80;;;;;;;9.79;54.59;100657.59;5271019;26;20053;-78
2024/04/28 02:06:23;;;;;;;4.72;3.40;;;;;;;9.95;53.88;100646.53;5294984;26;20364;-77
2024/04/28 02:08:48;;;;;;;3.10;2.38;;;;;;;10.02;53.64;100645.38;5302576;26;20057;-77
2024/04/28 02:11:15;;;;;;;2.95;2.40;;;;;;;10.04;53.34;100630.50;5294461;26;20015;-77
2024/04/28 02:13:40;;;;;;;4.07;3.00;;;;;;;9.98;53.51;100628.13;5294265;26;20020;-78
2024/04/28 02:16:06;;;;;;;3.40;2.47;;;;;;;10.00;53.29;100627.16;5267593;26;20001;-77
2024/04/28 02:18:31;;;;;;;4.18;2.75;;;;;;;10.00;53.32;100627.16;5307515;26;20012;-77
2024/04/28 02:20:57;;;;;;;2.72;1.50;;;;;;;9.90;53.46;100624.97;5295907;26;20514;-77
2024/04/28 02:23:22;;;;;;;2.17;1.88;;;;;;;10.08;52.67;100616.41;5294566;26;20441;-77
2024/04/28 02:25:48;;;;;;;3.17;1.65;;;;;;;10.14;52.51;100610.88;5293584;26;20087;-77
2024/04/28 02:28:13;;;;;;;7.10;1.80;;;;;;;10.10;52.44;100606.75;5272519;26;20021;-76
2024/04/28 02:30:39;;;;;;;3.72;2.10;;;;;;;10.15;52.37;100606.53;5299659;26;20593;-75
2024/04/28 02:33:05;;;;;;;2.75;1.80;;;;;;;10.04;52.63;100606.16;5347801;26;20043;-75
2024/04/28 02:35:31;;;;;;;3.80;2.22;;;;;;;10.12;52.06;100604.88;5303083;26;20010;-74
2024/04/28 02:37:56;;;;;;;2.88;2.28;;;;;;;10.12;52.03;100594.44;5298520;26;20006;-74
2024/04/28 02:40:22;;;;;;;4.68;2.28;;;;;;;10.19;52.05;100601.13;5296437;26;20088;-75
2024/04/28 02:42:47;;;;;;;6.63;2.38;;;;;;;10.10;52.15;100598.03;5327800;26;20501;-75
2024/04/28 02:50:42;;;;;;;3.75;1.95;;;;;;;9.94;52.97;100610.88;5294670;26;20005;-75
2024/04/28 02:53:07;;;;;;;5.25;2.63;;;;;;;9.93;53.06;100619.66;5324690;26;20484;-75
2024/04/28 02:55:33;;;;;;;3.80;2.47;;;;;;;9.93;52.98;100614.41;5288612;26;20021;-74
2024/04/28 02:58:00;;;;;;;3.03;1.92;;;;;;;9.94;52.72;100621.31;5295807;26;20020;-75
2024/04/28 03:00:26;;;;;;;2.53;2.28;;;;;;;10.08;52.42;100616.41;5298289;26;20002;-74
2024/04/28 03:02:58;;;;;;;6.45;2.85;;;;;;;10.00;52.47;100608.03;5301000;26;20009;-75
2024/04/28 03:05:24;;;;;;;5.05;2.40;;;;;;;9.94;52.95;100603.91;5286779;26;20535;-75
2024/04/28 03:07:50;;;;;;;4.05;2.53;;;;;;;9.97;52.99;100600.34;5266769;26;20010;-75
2024/04/28 03:10:16;;;;;;;3.08;2.00;;;;;;;9.89;53.16;100602.41;5294976;26;20020;-75
2024/04/28 03:12:45;;;;;;;4.80;2.22;;;;;;;9.94;52.91;100603.06;5279127;26;20083;-74
2024/04/28 03:15:11;;;;;;;3.72;2.72;;;;;;;9.90;52.86;100604.09;5333812;26;20813;-75
2024/04/28 03:17:36;;;;;;;3.38;2.45;;;;;;;9.93;53.25;100601.38;5298918;26;20022;-74
2024/04/28 03:20:02;;;;;;;3.72;2.55;;;;;;;9.88;52.74;100605.91;5299599;26;20411;-75
2024/04/28 03:22:28;;;;;;;2.28;2.05;;;;;;;9.98;52.49;100607.25;5291347;26;20004;-74
2024/04/28 03:24:53;;;;;;;3.10;1.92;;;;;;;9.87;52.49;100599.00;5300004;26;20046;-75
2024/04/28 03:27:19;;;;;;;4.57;2.40;;;;;;;10.00;52.16;100608.03;5299351;26;20440;-75
2024/04/28 03:29:45;;;;;;;2.15;1.83;;;;;;;10.01;51.95;100607.09;5294581;26;20051;-75
2024/04/28 03:32:13;;;;;;;3.88;1.90;;;;;;;10.02;51.73;100619.25;5296461;26;20014;-75
2024/04/28 03:34:40;;;;;;;3.08;2.40;;;;;;;9.93;51.78;100619.66;5348454;26;20263;-76
2024/04/28 03:37:06;;;;;;;3.55;1.92;;;;;;;10.01;51.66;100620.16;5328518;26;20043;-74
2024/04/28 03:39:32;;;;;;;2.20;1.67;;;;;;;10.07;51.21;100609.47;5307887;26;20013;-75
2024/04/28 03:41:58;;;;;;;4.85;2.03;;;;;;;10.12;50.94;100599.66;5332283;26;20019;-75
2024/04/28 03:44:23;;;;;;;3.35;1.63;;;;;;;10.02;51.13;100600.97;5289226;26;22202;-76
2024/04/28 03:46:49;;;;;;;2.47;1.63;;;;;;;10.10;50.49;100609.34;5330461;26;20017;-75
2024/04/28 03:49:14;;;;;;;1.90;1.60;;;;;;;10.04;50.87;100591.31;5294930;26;20451;-75
2024/04/28 03:51:41;;;;;;;4.20;1.63;;;;;;;10.04;50.52;100580.03;5298995;26;20016;-75
2024/04/28 03:54:07;;;;;;;2.38;1.13;;;;;;;9.90;50.68;100572.75;5270491;26;20013;-75
2024/04/28 03:56:34;;;;;;;1.90;1.35;;;;;;;9.91;50.53;100580.53;5304247;26;20005;-75
2024/04/28 03:59:00;;;;;;;2.85;1.23;;;;;;;10.13;49.72;100564.81;5329828;26;20045;-76
2024/04/28 04:01:26;;;;;;;2.92;1.20;;;;;;;10.07;50.13;100593.78;5287034;26;20834;-75
2024/04/28 04:03:52;;;;;;;4.13;1.55;;;;;;;10.14;50.03;100599.59;5296119;26;20021;-76
2024/04/28 04:06:18;;;;;;;2.85;1.35;;;;;;;10.07;50.35;100604.25;5296646;26;20006;-76
2024/04/28 04:08:44;;;;;;;2.33;0.95;;;;;;;9.85;50.90;100572.13;5273116;26;20027;-75
2024/04/28 04:11:11;;;;;;;1.80;1.23;;;;;;;9.69;51.27;100564.03;5302842;26;20010;-75
2024/04/28 04:13:37;;;;;;;1.60;1.02;;;;;;;9.77;51.07;100556.75;5343174;26;20423;-75
2024/04/28 04:16:04;;;;;;;1.80;1.27;;;;;;;9.80;50.65;100530.53;5292604;26;20013;-75
2024/04/28 04:18:30;;;;;;;1.70;1.00;;;;;;;10.03;50.12;100526.94;5321581;26;20020;-74
2024/04/28 04:20:55;;;;;;;1.73;0.98;;;;;;;9.85;49.63;100539.03;5316828;26;20019;-74
2024/04/28 04:23:21;;;;;;;4.45;1.17;;;;;;;10.08;49.11;100531.97;5303816;26;20103;-75
2024/04/28 04:25:46;;;;;;;1.60;1.10;;;;;;;9.82;49.56;100544.38;5271887;26;20013;-74
2024/04/28 04:28:12;;;;;;;1.40;0.82;;;;;;;10.02;49.45;100562.66;5292515;26;20492;-75
2024/04/28 04:30:38;;;;;;;2.10;0.90;;;;;;;10.04;49.28;100565.22;5299166;26;20021;-75
2024/04/28 04:33:04;;;;;;;1.70;0.98;;;;;;;10.22;48.68;100553.97;5325883;26;20466;-74
2024/04/28 04:35:29;;;;;;;1.65;1.10;;;;;;;10.18;48.83;100539.34;5285278;26;20006;-75
2024/04/28 04:37:55;;;;;;;1.55;1.10;;;;;;;10.31;48.18;100536.19;5299399;26;20047;-76
2024/04/28 04:40:21;;;;;;;2.03;1.13;;;;;;;10.40;48.12;100535.78;5297305;26;20020;-75
2024/04/28 04:42:47;;;;;;;1.20;0.77;;;;;;;10.24;48.18;100540.84;5302965;26;20002;-75
2024/04/28 04:45:12;;;;;;;1.75;1.20;;;;;;;10.16;48.46;100535.09;5271614;26;20006;-75
2024/04/28 04:47:38;;;;;;;2.28;0.82;;;;;;;10.12;48.86;100529.16;5295323;26;20459;-75
2024/04/28 04:50:04;;;;;;;2.50;1.25;;;;;;;10.05;49.03;100517.28;5292441;26;20371;-75
2024/04/28 04:52:29;;;;;;;1.77;1.60;;;;;;;9.96;49.11;100509.84;5258386;26;20322;-75
2024/04/28 04:54:55;;;;;;;5.30;1.42;;;;;;;10.16;48.77;100506.38;5343138;26;20016;-76
2024/04/28 04:57:20;;;;;;;3.80;1.15;;;;;;;10.11;48.76;100503.97;5275098;26;20052;-76
2024/04/28 04:59:46;;;;;;;6.38;1.33;;;;;;;10.18;48.33;100489.72;5272200;26;20009;-75
2024/04/28 05:02:11;;;;;;;2.10;1.02;;;;;;;10.28;47.98;100495.41;5292018;26;20044;-76
2024/04/28 05:04:37;;;;;;;1.70;0.90;;;;;;;10.55;47.46;100482.84;5300631;26;20254;-75
2024/04/28 05:07:03;;;;;;;2.17;1.20;;;;;;;10.64;46.57;100487.63;5323619;26;20012;-75
2024/04/28 05:09:29;;;;;;;1.92;0.88;;;;;;;10.80;45.78;100482.53;5289252;26;20008;-76
2024/04/28 05:11:55;;;;;;;2.40;0.80;;;;;;;10.99;45.52;100479.91;5279658;26;20404;-75
2024/04/28 05:14:21;;;;;;;1.25;0.80;;;;;;;11.46;43.86;100478.50;5295094;26;20013;-76
2024/04/28 05:16:47;;;;;;;2.63;1.08;;;;;;;11.94;42.61;100476.13;5349251;26;20014;-75
2024/04/28 05:19:14;;;;;;;1.88;0.88;;;;;;;11.61;43.09;100490.81;5276418;26;20013;-76
2024/04/28 05:21:39;;;;;;;1.30;0.98;;;;;;;11.25;44.01;100490.88;5294206;26;20043;-76
2024/04/28 05:24:05;;;;;;;4.38;1.17;;;;;;;11.02;44.72;100492.84;5289748;26;20017;-76
2024/04/28 05:26:31;;;;;;;2.65;0.70;;;;;;;10.84;45.24;100498.97;5290371;26;20021;-75
2024/04/28 05:28:56;;;;;;;1.50;0.77;;;;;;;10.80;44.74;100495.59;5289904;26;20013;-76
2024/04/28 05:31:22;;;;;;;2.05;0.75;;;;;;;10.78;44.51;100494.00;5319625;26;20009;-75
2024/04/28 05:33:48;;;;;;;2.70;0.70;;;;;;;11.22;44.14;100504.13;5296632;26;20025;-75
2024/04/28 05:36:14;;;;;;;1.35;0.50;;;;;;;11.26;44.03;100505.66;5323924;26;20016;-75
2024/04/28 05:38:39;;;;;;;4.53;0.73;;;;;;;11.46;43.51;100508.16;5272616;26;20496;-75
2024/04/28 05:41:06;;;;;;;3.60;1.23;;;;;;;11.95;42.55;100527.56;5301519;26;20058;-74
2024/04/28 05:43:31;;;;;;;3.00;1.13;;;;;;;12.31;41.73;100531.81;5327316;26;20013;-76
2024/04/28 05:45:58;;;;;;;3.53;0.68;;;;;;;12.46;41.41;100537.09;5342051;26;20006;-75
2024/04/28 05:48:23;;;;;;;1.58;0.60;;;;;;;12.16;41.70;100539.56;5321518;26;20477;-75
2024/04/28 05:50:49;;;;;;;2.75;0.90;;;;;;;12.18;41.38;100529.88;5298261;26;20009;-76
2024/04/28 05:53:15;;;;;;;1.73;0.90;;;;;;;12.14;41.29;100533.56;5325404;26;20002;-76
2024/04/28 05:55:40;;;;;;;1.30;0.68;;;;;;;12.16;41.09;100528.25;5286101;26;20438;-75
2024/04/28 05:58:06;;;;;;;2.38;0.57;;;;;;;13.97;38.86;100527.84;5348710;26;20112;-76
2024/04/28 06:00:32;;;;;;;2.47;0.82;;;;;;;15.80;35.17;100536.38;5316766;26;20086;-75
2024/04/28 06:02:58;;;;;;;3.35;0.82;;;;;;;16.89;33.16;100530.66;5317055;26;20051;-75
2024/04/28 06:05:24;;;;;;;2.25;0.32;;;;;;;17.46;32.02;100523.81;5323368;26;20013;-75
2024/04/28 06:07:51;;;;;;;2.47;0.93;;;;;;;17.20;31.82;100533.66;5267409;26;20006;-75
2024/04/28 06:10:17;;;;;;;2.08;0.93;;;;;;;15.84;34.55;100542.31;5343592;26;20316;-75
2024/04/28 06:12:43;;;;;;;2.88;0.73;;;;;;;14.49;36.79;100545.72;5282476;26;20001;-75
2024/04/28 06:15:09;;;;;;;1.25;0.77;;;;;;;13.44;38.83;100548.38;5297203;26;20005;-75
2024/04/28 06:17:35;;;;;;;1.77;0.60;;;;;;;14.15;37.74;100547.75;5310647;26;20006;-75
2024/04/28 06:20:00;;;;;;;3.38;0.73;;;;;;;15.30;35.48;100547.63;5299373;26;20020;-75
2024/04/28 06:22:26;;;;;;;1.80;0.60;;;;;;;15.37;34.98;100548.91;5315777;26;20082;-74
2024/04/28 06:24:52;;;;;;;1.23;0.47;;;;;;;16.04;34.78;100555.94;5295383;26;20054;-76
2024/04/28 06:27:17;;;;;;;2.78;0.43;;;;;;;16.65;32.45;100524.47;5296952;26;20618;-75
2024/04/28 06:29:43;;;;;;;3.17;0.40;;;;;;;18.45;30.58;100555.06;5285311;26;20022;-75
2024/04/28 06:32:08;;;;;;;0.80;0.55;;;;;;;16.77;32.27;100563.19;5296515;26;20001;-75
2024/04/28 06:34:34;;;;;;;1.60;0.50;;;;;;;14.58;35.85;100555.66;5290553;26;20021;-75
2024/04/28 06:36:59;;;;;;;0.88;0.30;;;;;;;14.55;36.90;100561.97;5285743;26;20006;-75
2024/04/28 06:39:25;;;;;;;1.42;0.60;;;;;;;14.26;36.26;100552.38;5337847;26;20008;-75
2024/04/28 06:41:50;;;;;;;1.48;0.45;;;;;;;14.03;36.51;100561.59;5315993;26;20005;-75
2024/04/28 06:44:17;;;;;;;1.00;0.43;;;;;;;14.47;36.02;100558.94;5270381;26;20020;-75
2024/04/28 06:46:42;;;;;;;1.02;0.38;;;;;;;15.51;34.20;100561.19;5317570;26;20017;-75
2024/04/28 06:49:08;;;;;;;4.05;0.82;;;;;;;14.62;35.29;100561.59;5293043;26;20054;-75
2024/04/28 06:51:34;;;;;;;1.73;0.40;;;;;;;14.33;36.14;100559.75;5310139;26;20412;-75
2024/04/28 06:54:00;;;;;;;1.00;0.40;;;;;;;16.20;33.69;100560.06;5294902;26;20508;-75
2024/04/28 06:56:25;;;;;;;0.52;0.28;;;;;;;18.68;29.34;100560.34;5312650;26;20009;-75
2024/04/28 06:58:51;;;;;;;1.17;0.47;;;;;;;19.50;28.12;100557.25;5286494;26;20042;-75
2024/04/28 07:01:18;;;;;;;1.10;0.52;;;;;;;20.84;26.70;100541.41;5286298;26;20002;-75
2024/04/28 07:03:44;;;;;;;0.88;0.40;;;;;;;19.75;26.88;100556.09;5291535;26;20008;-75
2024/04/28 07:06:09;;;;;;;0.68;0.30;;;;;;;20.70;25.95;100552.38;5315269;26;20013;-76
2024/04/28 07:08:35;;;;;;;0.68;0.20;;;;;;;18.37;28.67;100546.03;5292252;26;20808;-75
2024/04/28 07:11:00;;;;;;;1.65;0.47;;;;;;;18.88;28.74;100551.69;5300740;26;20168;-75
2024/04/28 07:13:26;;;;;;;0.73;0.30;;;;;;;19.74;26.10;100537.66;5320077;26;20160;-75
2024/04/28 07:15:52;;;;;;;3.45;0.30;;;;;;;21.72;24.85;100542.28;5291968;26;20021;-75
2024/04/28 07:18:17;;;;;;;0.50;0.10;;;;;;;21.62;24.45;100541.44;5291555;26;20306;-76
2024/04/28 07:20:43;;;;;;;0.88;0.28;;;;;;;20.08;25.34;100551.53;5287792;26;20083;-75
2024/04/28 07:23:09;;;;;;;0.70;0.20;;;;;;;20.72;25.36;100553.06;5291585;26;20668;-75
2024/04/28 07:25:36;;;;;;;1.25;0.20;;;;;;;20.52;25.51;100550.34;5339326;26;20009;-75
2024/04/28 07:28:03;;;;;;;0.30;0.20;;;;;;;19.60;26.66;100554.72;5257052;26;20603;-75
2024/04/28 07:30:28;;;;;;;0.65;0.30;;;;;;;18.61;27.76;100556.50;5319040;26;20019;-75
2024/04/28 07:32:54;;;;;;;0.38;0.17;;;;;;;17.64;28.69;100563.91;5295909;26;20008;-75
2024/04/28 07:35:20;;;;;;;0.45;0.20;;;;;;;17.29;30.05;100566.47;5301066;26;20081;-75
2024/04/28 07:37:45;;;;;;;0.60;0.30;;;;;;;16.94;30.71;100569.91;5280952;26;20009;-74
2024/04/28 07:40:11;;;;;;;0.52;0.20;;;;;;;16.77;31.85;100571.94;5293760;26;21968;-75
2024/04/28 07:42:36;;;;;;;1.83;0.20;;;;;;;16.06;31.75;100577.75;5288028;26;20491;-75
2024/04/28 07:45:02;;;;;;;5.78;0.30;;;;;;;16.12;31.24;100572.91;5344661;26;20012;-74
2024/04/28 07:47:28;;;;;;;1.88;0.30;;;;;;;16.47;31.35;100576.72;5313056;26;20006;-75
2024/04/28 07:49:54;;;;;;;2.60;0.30;;;;;;;15.83;32.09;100588.03;5301745;26;20005;-75
2024/04/28 07:52:19;;;;;;;1.30;0.30;;;;;;;16.40;31.48;100581.56;5290906;26;20023;-75
2024/04/28 07:54:46;;;;;;;0.40;0.20;;;;;;;16.77;30.48;100586.94;5296886;26;20068;-75
2024/04/28 07:57:12;;;;;;;0.50;0.20;;;;;;;16.55;30.10;100590.19;5291493;26;20027;-75
2024/04/28 07:59:37;;;;;;;0.60;0.20;;;;;;;16.61;30.41;100595.06;5299532;26;20512;-74
2024/04/28 08:02:05;;;;;;;2.78;0.20;;;;;;;15.72;32.35;100601.06;5317994;26;20009;-74
2024/04/28 08:04:33;;;;;;;0.47;0.13;;;;;;;15.52;32.89;100594.47;5315415;26;20080;-75
2024/04/28 08:06:58;;;;;;;3.03;0.10;;;;;;;14.82;33.33;100600.66;5300719;26;20108;-75
2024/04/28 08:09:24;;;;;;;1.75;0.45;;;;;;;15.08;34.04;100606.91;5258160;26;20009;-75
2024/04/28 08:11:50;;;;;;;0.50;0.15;;;;;;;14.68;33.71;100598.88;5299553;26;20013;-75
2024/04/28 08:14:15;;;;;;;0.65;0.20;;;;;;;15.24;33.32;100596.28;5288304;26;20010;-75
2024/04/28 08:16:42;;;;;;;0.68;0.10;;;;;;;15.30;33.31;100589.75;5294373;26;20005;-75
2024/04/28 08:19:07;;;;;;;1.60;0.20;;;;;;;16.19;31.94;100590.00;5287864;26;20016;-74
2024/04/28 08:21:33;;;;;;;1.38;0.10;;;;;;;18.16;29.04;100590.81;5291861;26;20472;-75
2024/04/28 08:23:58;;;;;;;0.50;0.20;;;;;;;18.87;28.24;100592.34;5296778;26;20004;-75
2024/04/28 08:26:29;;;;;;;0.47;0.20;;;;;;;19.32;28.34;100582.63;5297170;26;20305;-75
2024/04/28 08:28:54;;;;;;;1.77;0.20;;;;;;;18.91;28.02;100587.66;5304548;26;20396;-74
2024/04/28 08:31:20;;;;;;;0.57;0.15;;;;;;;17.59;29.62;100588.03;5324063;26;20049;-74
2024/04/28 08:33:46;;;;;;;0.40;0.10;;;;;;;17.34;30.63;100583.69;5293240;26;20426;-75
2024/04/28 08:36:12;;;;;;;0.60;0.20;;;;;;;16.99;31.11;100575.69;5287181;26;20024;-74
2024/04/28 08:38:37;;;;;;;0.45;0.10;;;;;;;16.69;31.17;100571.63;5338743;26;20646;-75
2024/04/28 08:41:08;;;;;;;1.85;0.10;;;;;;;16.04;32.68;100567.34;5297534;26;20466;-75
2024/04/28 08:43:34;;;;;;;1.20;0.20;;;;;;;16.30;32.92;100586.63;5290384;26;20009;-75
2024/04/28 08:46:00;;;;;;;2.10;0.20;;;;;;;16.19;32.75;100590.00;5288636;26;20083;-75
2024/04/28 08:48:26;;;;;;;1.20;0.20;;;;;;;16.35;33.09;100583.66;5345912;26;20015;-75
2024/04/28 08:50:52;;;;;;;0.40;0.20;;;;;;;16.75;32.97;100592.31;5285729;26;20021;-75
2024/04/28 08:53:19;;;;;;;0.93;0.10;;;;;;;17.19;31.79;100580.38;5285546;26;21190;-75
2024/04/28 08:55:46;;;;;;;1.67;0.20;;;;;;;17.37;31.42;100578.16;5291661;26;20371;-74
2024/04/28 08:58:11;;;;;;;0.90;0.20;;;;;;;17.40;31.68;100577.09;5288774;26;20153;-74
2024/04/28 09:00:37;;;;;;;0.73;0.15;;;;;;;17.47;31.84;100581.00;5273887;26;20017;-75
2024/04/28 09:03:06;;;;;;;0.65;0.20;;;;;;;17.23;31.97;100584.47;5298409;26;21010;-74
2024/04/28 09:05:32;;;;;;;2.78;0.20;;;;;;;16.60;32.77;100588.09;5318564;26;20032;-75
2024/04/28 09:07:58;;;;;;;1.42;0.25;;;;;;;16.54;32.97;100585.88;5289544;26;20460;-74
2024/04/28 09:10:23;;;;;;;1.08;0.20;;;;;;;16.63;32.78;100593.16;5291834;26;20488;-74
2024/04/28 09:12:50;;;;;;;0.32;0.10;;;;;;;16.17;32.94;100606.88;5314584;26;20021;-75
2024/04/28 09:15:15;;;;;;;1.25;0.20;;;;;;;15.92;33.73;100597.94;5295295;26;20010;-75
2024/04/28 09:17:45;;;;;;;3.00;0.30;;;;;;;16.12;33.83;100594.00;5343681;26;20005;-75
2024/04/28 09:20:20;;;;;;;2.10;0.20;;;;;;;16.05;33.80;100591.91;5290223;26;20594;-75
2024/04/28 09:22:46;;;;;;;0.43;0.13;;;;;;;16.16;34.16;100599.94;5339710;26;20020;-74
2024/04/28 09:25:17;;;;;;;0.85;0.20;;;;;;;16.20;33.74;100596.97;5320370;26;20028;-75
2024/04/28 09:27:43;;;;;;;0.32;0.10;;;;;;;15.72;34.58;100601.06;5312584;26;20686;-74
2024/04/28 09:30:17;;;;;;;1.33;0.22;;;;;;;16.89;33.05;100588.72;5300622;26;20019;-75
2024/04/28 09:32:43;;;;;;;0.65;0.20;;;;;;;16.93;33.46;100586.69;5285971;26;20078;-74
2024/04/28 09:35:09;;;;;;;1.48;0.20;;;;;;;17.31;32.86;100580.41;5303934;26;20014;-74
2024/04/28 09:37:37;;;;;;;1.75;0.20;;;;;;;17.27;32.67;100586.88;5287534;26;20008;-75
2024/04/28 09:40:06;;;;;;;0.60;0.15;;;;;;;17.19;32.91;100590.94;5281024;26;20384;-75
2024/04/28 09:42:33;;;;;;;0.88;0.25;;;;;;;17.58;32.84;100588.13;5294543;26;20013;-75
2024/04/28 09:44:59;;;;;;;3.20;0.20;;;;;;;17.40;32.68;100582.38;5292449;26;20014;-74
2024/04/28 09:47:26;;;;;;;3.35;0.35;;;;;;;16.33;33.72;100598.75;5316412;26;20021;-74
2024/04/28 09:49:51;;;;;;;0.80;0.20;;;;;;;16.50;34.18;100592.31;5287816;26;20005;-74
2024/04/28 09:52:20;;;;;;;1.45;0.10;;;;;;;16.05;34.63;100598.00;5315841;26;20001;-74
2024/04/28 09:54:47;;;;;;;1.42;0.22;;;;;;;16.00;34.67;100600.97;5293224;26;20069;-75
2024/04/28 09:57:14;;;;;;;1.50;0.20;;;;;;;16.07;34.86;100608.47;5279735;26;23461;-75
2024/04/28 09:59:44;;;;;;;1.30;0.17;;;;;;;15.67;35.16;100614.56;5291503;26;20010;-74
2024/04/28 10:02:13;;;;;;;0.93;0.10;;;;;;;15.64;34.89;100613.91;5285812;26;20333;-75
2024/04/28 10:04:43;;;;;;;2.80;0.30;;;;;;;16.20;34.89;100618.06;5291944;26;20020;-75
2024/04/28 10:07:13;;;;;;;0.55;0.10;;;;;;;16.30;34.64;100623.53;5273174;26;20010;-74
2024/04/28 10:09:40;;;;;;;1.65;0.20;;;;;;;17.06;34.24;100611.25;5288142;26;20017;-75
2024/04/28 10:12:08;;;;;;;2.70;0.20;;;;;;;18.69;32.47;100605.19;5291902;26;20016;-75
2024/04/28 10:14:35;;;;;;;2.63;0.30;;;;;;;19.71;29.95;100602.38;5319753;26;20087;-75
2024/04/28 10:17:00;;;;;;;1.83;0.20;;;;;;;19.49;30.02;100606.75;5296054;26;20005;-75
2024/04/28 10:19:29;;;;;;;1.02;0.20;;;;;;;19.72;29.38;100604.06;5314614;26;20033;-74
2024/04/28 10:22:06;;;;;;;0.88;0.30;;;;;;;19.47;30.12;100615.81;5291031;26;20017;-75
2024/04/28 10:24:32;;;;;;;3.33;0.20;;;;;;;18.80;30.19;100625.53;5269063;26;20017;-75
2024/04/28 10:26:58;;;;;;;3.78;0.30;;;;;;;18.36;31.40;100621.06;5296327;26;20019;-75
2024/04/28 10:29:24;;;;;;;1.38;0.20;;;;;;;19.85;30.17;100628.56;5289590;26;20107;-74
2024/04/28 10:31:51;;;;;;;0.73;0.20;;;;;;;19.55;29.51;100623.13;5297507;26;20818;-75
2024/04/28 10:34:27;;;;;;;4.10;0.20;;;;;;;18.65;31.08;100630.25;5288687;26;20013;-75
2024/04/28 10:36:53;;;;;;;2.38;0.20;;;;;;;19.49;30.27;100619.19;5301115;26;20017;-76
2024/04/28 10:39:20;;;;;;;1.08;0.10;;;;;;;19.77;29.80;100638.13;5340255;26;21373;-75
2024/04/28 10:41:45;;;;;;;2.22;0.15;;;;;;;20.36;28.46;100642.91;5316047;26;20594;-75
2024/04/28 10:44:13;;;;;;;2.72;0.57;;;;;;;20.51;28.82;100633.63;5310524;26;20066;-75
2024/04/28 10:46:38;;;;;;;0.95;0.20;;;;;;;20.89;28.68;100634.81;5289948;26;20005;-74
2024/04/28 10:49:03;;;;;;;5.30;0.30;;;;;;;20.64;28.25;100640.53;5271276;26;20086;-75
2024/04/28 10:51:29;;;;;;;1.05;0.43;;;;;;;20.33;28.96;100653.81;5290110;26;20020;-75
2024/04/28 10:53:54;;;;;;;0.88;0.40;;;;;;;19.20;29.14;100646.22;5284465;26;20375;-75
2024/04/28 10:56:20;;;;;;;0.68;0.25;;;;;;;18.75;30.49;100645.41;5287223;26;20005;-74
2024/04/28 10:58:45;;;;;;;3.22;0.20;;;;;;;18.54;30.45;100639.97;5284426;26;20013;-75
2024/04/28 11:01:11;;;;;;;2.83;0.20;;;;;;;19.16;29.96;100631.53;5321604;26;20358;-75
2024/04/28 11:03:36;;;;;;;1.48;0.20;;;;;;;19.05;30.63;100635.06;5287268;26;20457;-74
2024/04/28 11:06:02;;;;;;;0.98;0.20;;;;;;;18.75;31.43;100630.38;5287737;26;20002;-75
2024/04/28 11:08:27;;;;;;;1.23;0.20;;;;;;;19.02;30.67;100621.22;5292444;26;20020;-75
2024/04/28 11:10:53;;;;;;;0.30;0.10;;;;;;;19.28;30.33;100640.34;5267436;26;20124;-75
2024/04/28 11:13:18;;;;;;;1.70;0.20;;;;;;;18.79;30.61;100631.81;5348306;26;20013;-75
2024/04/28 11:15:44;;;;;;;3.08;0.20;;;;;;;19.88;29.53;100635.44;5344415;26;20145;-75
2024/04/28 11:18:11;;;;;;;0.55;0.20;;;;;;;20.56;28.47;100641.19;5290407;26;20024;-75
2024/04/28 11:20:37;;;;;;;1.50;0.17;;;;;;;21.32;27.35;100636.28;5323191;26;20016;-75
2024/04/28 11:23:08;;;;;;;2.45;0.32;;;;;;;21.15;27.86;100637.81;5319917;26;20017;-74
2024/04/28 11:25:34;;;;;;;3.88;0.17;;;;;;;21.18;27.80;100636.69;5292839;26;20095;-75